Time;durP1;ratioP1;P1;durP2;ratioP2;P2;SDS_P1;SDS_P2;PMS_P1;PMS_P2;Temp;Humidity;BMP_temperature;BMP_pressure;BME280_temperature;BME280_humidity;BME280_pressure;Samples;Min_cycle;Max_cycle;Signal;HPM_P1;HPM_P2
2022/05/24 00:01:27;;;;;;;;;;;28.40;43.30;;;;;;5117631;28;1791;-35
2022/05/24 00:03:53;;;;;;;;;;;28.40;43.30;;;;;;5118634;28;960;-36
2022/05/24 00:06:20;;;;;;;;;;;28.40;43.30;;;;;;5117259;28;1007;-36
2022/05/24 00:08:48;;;;;;;;;;;28.40;43.30;;;;;;5117634;28;964;-36
2022/05/24 00:11:15;;;;;;;;;;;28.40;43.30;;;;;;5117057;28;1012;-35
2022/05/24 00:13:41;;;;;;;;;;;28.40;43.30;;;;;;5116704;28;1889;-37
2022/05/24 00:16:08;;;;;;;;;;;28.40;43.20;;;;;;5117183;28;1023;-38
2022/05/24 00:18:35;;;;;;;;;;;28.40;43.30;;;;;;5118362;28;987;-38
2022/05/24 00:21:02;;;;;;;;;;;28.40;43.30;;;;;;5116831;28;1020;-39
2022/05/24 00:23:30;;;;;;;;;;;28.40;43.30;;;;;;5116845;28;1014;-35
2022/05/24 00:26:00;;;;;;;;;;;28.50;43.30;;;;;;5118678;28;1019;-35
2022/05/24 00:28:27;;;;;;;;;;;28.40;43.30;;;;;;5118077;28;1021;-35
2022/05/24 00:30:54;;;;;;;;;;;28.40;43.30;;;;;;5117963;28;1008;-36
2022/05/24 00:33:22;;;;;;;;;;;28.50;43.30;;;;;;5117288;28;1925;-37
2022/05/24 00:35:48;;;;;;;;;;;28.40;43.30;;;;;;5118400;28;937;-35
2022/05/24 00:38:20;;;;;;;;;;;28.40;43.30;;;;;;5118635;28;948;-37
2022/05/24 00:40:51;;;;;;;;;;;28.40;43.30;;;;;;5118327;28;933;-36
2022/05/24 00:43:24;;;;;;;;;;;28.40;43.30;;;;;;5118601;28;970;-37
2022/05/24 00:45:53;;;;;;;;;;;28.40;43.20;;;;;;5118226;28;936;-35
2022/05/24 00:48:22;;;;;;;;;;;28.40;43.40;;;;;;5119341;28;972;-42
2022/05/24 00:50:49;;;;;;;;;;;28.40;43.30;;;;;;5118089;28;1035;-35
2022/05/24 00:53:18;;;;;;;;;;;28.40;43.30;;;;;;5117163;28;1917;-35
2022/05/24 00:55:47;;;;;;;;;;;28.40;43.20;;;;;;5117804;28;940;-38
2022/05/24 00:58:17;;;;;;;;;;;28.40;43.30;;;;;;5118427;28;979;-41
2022/05/24 01:00:45;;;;;;;;;;;28.40;43.30;;;;;;5117903;28;1208;-35
2022/05/24 01:03:13;;;;;;;;;;;28.40;43.30;;;;;;5118001;28;929;-35
2022/05/24 01:05:40;;;;;;;;;;;28.40;43.30;;;;;;5118130;28;925;-36
2022/05/24 01:08:07;;;;;;;;;;;28.40;43.20;;;;;;5118510;28;1039;-36
2022/05/24 01:10:36;;;;;;;;;;;28.40;43.10;;;;;;5118489;28;933;-35
2022/05/24 01:13:05;;;;;;;;;;;28.40;43.20;;;;;;5118466;28;1972;-36
2022/05/24 01:15:32;;;;;;;;;;;28.40;43.10;;;;;;5118237;28;1000;-36
2022/05/24 01:18:00;;;;;;;;;;;28.40;43.10;;;;;;5118371;28;1010;-39
2022/05/24 01:20:28;;;;;;;;;;;28.40;43.10;;;;;;5118769;28;1004;-35
2022/05/24 01:23:15;;;;;;;;;;;28.40;43.10;;;;;;5117759;28;1030;-39
2022/05/24 01:25:47;;;;;;;;;;;28.40;43.10;;;;;;5117356;28;976;-38
2022/05/24 01:28:18;;;;;;;;;;;28.40;43.10;;;;;;5118245;28;1007;-38
2022/05/24 01:30:44;;;;;;;;;;;28.40;43.20;;;;;;5118221;28;944;-37
2022/05/24 01:38:47;;;;;;;;;;;28.40;43.20;;;;;;5101941;28;1285;-37
2022/05/24 01:41:17;;;;;;;;;;;28.30;43.10;;;;;;5117041;28;921;-37
2022/05/24 01:43:47;;;;;;;;;;;28.40;43.20;;;;;;5117939;28;1002;-38
2022/05/24 01:46:14;;;;;;;;;;;28.40;43.20;;;;;;5117282;28;953;-36
2022/05/24 01:48:43;;;;;;;;;;;28.40;43.10;;;;;;5118302;28;1000;-36
2022/05/24 01:51:12;;;;;;;;;;;28.40;43.10;;;;;;5118171;28;949;-37
2022/05/24 01:53:42;;;;;;;;;;;28.40;43.20;;;;;;5117881;28;1894;-35
2022/05/24 01:56:11;;;;;;;;;;;28.40;43.20;;;;;;5117151;28;984;-37
2022/05/24 01:58:39;;;;;;;;;;;28.40;43.10;;;;;;5117581;28;1083;-36
2022/05/24 02:01:10;;;;;;;;;;;28.40;43.10;;;;;;5117791;28;1040;-39
2022/05/24 02:03:37;;;;;;;;;;;28.40;43.10;;;;;;5117580;28;1121;-36
2022/05/24 02:06:17;;;;;;;;;;;28.40;43.10;;;;;;5117504;28;984;-36
2022/05/24 02:08:44;;;;;;;;;;;28.40;43.10;;;;;;5118451;28;991;-40
2022/05/24 02:11:11;;;;;;;;;;;28.40;43.10;;;;;;5118190;28;941;-37
2022/05/24 02:13:39;;;;;;;;;;;28.40;43.00;;;;;;5120728;28;1902;-36
2022/05/24 02:16:09;;;;;;;;;;;28.40;43.00;;;;;;5122046;28;996;-37
2022/05/24 02:18:39;;;;;;;;;;;28.40;42.90;;;;;;5122319;28;1089;-35
2022/05/24 02:21:06;;;;;;;;;;;28.40;43.00;;;;;;5122127;28;997;-36
2022/05/24 02:23:39;;;;;;;;;;;28.40;43.00;;;;;;5122000;28;992;-38
2022/05/24 02:26:08;;;;;;;;;;;28.40;43.00;;;;;;5122030;28;1015;-36
2022/05/24 02:28:34;;;;;;;;;;;28.30;42.90;;;;;;5121801;28;1040;-37
2022/05/24 02:31:02;;;;;;;;;;;28.30;42.90;;;;;;5121472;28;1011;-35
2022/05/24 02:36:43;;;;;;;;;;;28.40;43.00;;;;;;5120107;28;605;-36
2022/05/24 02:39:10;;;;;;;;;;;28.30;42.90;;;;;;5119953;28;1012;-36
2022/05/24 02:41:36;;;;;;;;;;;28.40;43.00;;;;;;5118987;28;992;-38
2022/05/24 02:44:04;;;;;;;;;;;28.40;43.00;;;;;;5120343;28;1020;-37
2022/05/24 02:46:32;;;;;;;;;;;28.30;42.90;;;;;;5120487;28;935;-36
2022/05/24 02:48:59;;;;;;;;;;;28.30;42.90;;;;;;5119856;28;996;-36
2022/05/24 02:51:26;;;;;;;;;;;28.30;42.80;;;;;;5119605;28;964;-36
2022/05/24 02:53:55;;;;;;;;;;;28.40;42.90;;;;;;5119385;28;1909;-38
2022/05/24 02:56:22;;;;;;;;;;;28.30;42.90;;;;;;5119945;28;857;-35
2022/05/24 02:58:49;;;;;;;;;;;28.30;42.90;;;;;;5119907;28;1680;-36
2022/05/24 03:01:18;;;;;;;;;;;28.30;42.90;;;;;;5119550;28;1164;-35
2022/05/24 03:03:45;;;;;;;;;;;28.30;42.90;;;;;;5120908;28;976;-36
2022/05/24 03:06:11;;;;;;;;;;;28.40;42.90;;;;;;5120155;28;1003;-35
2022/05/24 03:11:24;;;;;;;;;;;28.30;42.80;;;;;;5119137;28;706;-44
2022/05/24 03:16:35;;;;;;;;;;;28.30;42.90;;;;;;5118034;28;722;-44
2022/05/24 03:19:02;;;;;;;;;;;28.30;42.80;;;;;;5118817;28;1007;-43
2022/05/24 03:21:28;;;;;;;;;;;28.30;42.90;;;;;;5118719;28;984;-42
2022/05/24 03:23:55;;;;;;;;;;;28.30;42.90;;;;;;5117654;28;1011;-43
2022/05/24 03:26:22;;;;;;;;;;;28.30;42.90;;;;;;5118994;28;1023;-44
2022/05/24 03:28:50;;;;;;;;;;;28.30;42.90;;;;;;5119641;28;1789;-42
2022/05/24 03:31:17;;;;;;;;;;;28.30;42.80;;;;;;5118689;28;940;-44
2022/05/24 03:33:43;;;;;;;;;;;28.30;42.90;;;;;;5118133;28;1983;-43
2022/05/24 03:36:10;;;;;;;;;;;28.30;42.80;;;;;;5119518;28;955;-44
2022/05/24 03:38:37;;;;;;;;;;;28.30;42.80;;;;;;5119041;28;1000;-42
2022/05/24 03:41:04;;;;;;;;;;;28.30;42.80;;;;;;5118687;28;981;-42
2022/05/24 03:43:30;;;;;;;;;;;28.30;42.80;;;;;;5118555;28;1007;-41
2022/05/24 03:46:02;;;;;;;;;;;28.30;42.80;;;;;;5119027;28;944;-43
2022/05/24 03:48:30;;;;;;;;;;;28.30;42.80;;;;;;5118284;28;968;-47
2022/05/24 03:50:57;;;;;;;;;;;28.30;42.70;;;;;;5118615;28;915;-47
2022/05/24 03:53:23;;;;;;;;;;;28.30;42.80;;;;;;5118395;28;1914;-47
2022/05/24 03:55:50;;;;;;;;;;;28.30;42.70;;;;;;5117308;28;1000;-47
2022/05/24 03:58:16;;;;;;;;;;;28.30;42.80;;;;;;5118248;28;960;-49
2022/05/24 04:00:44;;;;;;;;;;;28.30;42.70;;;;;;5118440;28;1110;-38
2022/05/24 04:03:12;;;;;;;;;;;28.30;42.70;;;;;;5118596;28;996;-39
2022/05/24 04:05:39;;;;;;;;;;;28.30;42.70;;;;;;5118363;28;1020;-39
2022/05/24 04:08:06;;;;;;;;;;;28.30;42.70;;;;;;5118781;28;948;-39
2022/05/24 04:10:33;;;;;;;;;;;28.30;42.70;;;;;;5117674;28;976;-38
2022/05/24 04:13:00;;;;;;;;;;;28.30;42.70;;;;;;5117895;28;1035;-40
2022/05/24 04:15:27;;;;;;;;;;;28.30;42.70;;;;;;5118345;28;1910;-39
2022/05/24 04:17:55;;;;;;;;;;;28.30;42.60;;;;;;5117945;28;1109;-39
2022/05/24 04:20:25;;;;;;;;;;;28.30;42.80;;;;;;5118623;28;933;-39
2022/05/24 04:22:53;;;;;;;;;;;28.30;42.80;;;;;;5117444;28;990;-38
2022/05/24 04:25:20;;;;;;;;;;;28.30;42.60;;;;;;5117787;28;871;-39
2022/05/24 04:27:47;;;;;;;;;;;28.30;42.60;;;;;;5116974;28;928;-39
2022/05/24 04:30:13;;;;;;;;;;;28.20;42.60;;;;;;5117404;28;951;-39
2022/05/24 04:32:41;;;;;;;;;;;28.30;42.60;;;;;;5116374;28;1039;-39
2022/05/24 04:35:08;;;;;;;;;;;28.30;42.70;;;;;;5115677;28;1921;-39
2022/05/24 04:37:36;;;;;;;;;;;28.20;42.70;;;;;;5115280;28;994;-39
2022/05/24 04:40:03;;;;;;;;;;;28.20;42.70;;;;;;5116488;28;941;-39
2022/05/24 04:42:28;;;;;;;;;;;28.20;42.70;;;;;;5117060;28;1043;-47
2022/05/24 04:44:57;;;;;;;;;;;28.20;42.70;;;;;;5116073;28;999;-47
2022/05/24 04:47:24;;;;;;;;;;;28.20;42.70;;;;;;5115795;28;997;-47
2022/05/24 04:49:54;;;;;;;;;;;28.20;42.60;;;;;;5115833;28;948;-47
2022/05/24 04:52:21;;;;;;;;;;;28.20;42.50;;;;;;5115350;28;1024;-47
2022/05/24 04:54:49;;;;;;;;;;;28.30;42.60;;;;;;5115576;28;1984;-47
2022/05/24 04:57:16;;;;;;;;;;;28.30;42.60;;;;;;5114593;28;1035;-47
2022/05/24 04:59:43;;;;;;;;;;;28.20;42.60;;;;;;5114235;28;1089;-47
2022/05/24 05:02:09;;;;;;;;;;;28.20;42.70;;;;;;5116020;28;977;-47
2022/05/24 05:04:37;;;;;;;;;;;28.20;42.60;;;;;;5113956;28;912;-47
2022/05/24 05:07:04;;;;;;;;;;;28.20;42.60;;;;;;5115846;28;1032;-46
2022/05/24 05:09:35;;;;;;;;;;;28.20;42.60;;;;;;5115148;28;956;-47
2022/05/24 05:12:04;;;;;;;;;;;28.20;42.60;;;;;;5114519;28;1028;-47
2022/05/24 05:14:31;;;;;;;;;;;28.20;42.60;;;;;;5114349;28;1914;-47
2022/05/24 05:16:58;;;;;;;;;;;28.20;42.60;;;;;;5114501;28;1015;-47
2022/05/24 05:19:24;;;;;;;;;;;28.20;42.50;;;;;;5115140;28;1799;-47
2022/05/24 05:21:51;;;;;;;;;;;28.20;42.60;;;;;;5114745;28;929;-47
2022/05/24 05:24:18;;;;;;;;;;;28.20;42.60;;;;;;5114029;28;992;-46
2022/05/24 05:26:45;;;;;;;;;;;28.20;42.50;;;;;;5114341;28;1004;-46
2022/05/24 05:29:13;;;;;;;;;;;28.20;42.60;;;;;;5113347;28;996;-47
2022/05/24 05:31:39;;;;;;;;;;;28.20;42.60;;;;;;5114372;28;1012;-46
2022/05/24 05:34:06;;;;;;;;;;;28.20;42.60;;;;;;5114768;28;1905;-47
2022/05/24 05:36:33;;;;;;;;;;;28.20;42.60;;;;;;5115059;28;984;-48
2022/05/24 05:39:00;;;;;;;;;;;28.20;42.60;;;;;;5114935;28;952;-47
2022/05/24 05:41:29;;;;;;;;;;;28.20;42.50;;;;;;5115044;28;968;-47
2022/05/24 05:43:55;;;;;;;;;;;28.20;42.60;;;;;;5115234;28;1004;-48
2022/05/24 05:46:23;;;;;;;;;;;28.20;42.50;;;;;;5114269;28;1002;-47
2022/05/24 05:48:50;;;;;;;;;;;28.20;42.50;;;;;;5117047;28;992;-47
2022/05/24 05:51:18;;;;;;;;;;;28.20;42.50;;;;;;5118240;28;988;-46
2022/05/24 05:53:45;;;;;;;;;;;28.20;42.50;;;;;;5118805;28;1975;-47
2022/05/24 05:56:14;;;;;;;;;;;28.20;42.40;;;;;;5119797;28;1016;-47
2022/05/24 05:58:41;;;;;;;;;;;28.20;42.50;;;;;;5119346;28;999;-47
2022/05/24 06:01:13;;;;;;;;;;;28.20;42.50;;;;;;5119525;28;936;-47
2022/05/24 06:03:42;;;;;;;;;;;28.30;42.40;;;;;;5119094;28;996;-47
2022/05/24 06:06:10;;;;;;;;;;;28.20;42.30;;;;;;5119384;28;932;-46
2022/05/24 06:08:37;;;;;;;;;;;28.20;42.40;;;;;;5118626;28;920;-46
2022/05/24 06:11:04;;;;;;;;;;;28.20;42.40;;;;;;5118379;28;981;-46
2022/05/24 06:13:31;;;;;;;;;;;28.30;42.40;;;;;;5118314;28;986;-46
2022/05/24 06:15:59;;;;;;;;;;;28.30;42.40;;;;;;5117106;28;1898;-47
2022/05/24 06:18:26;;;;;;;;;;;28.30;42.40;;;;;;5117767;28;949;-47
2022/05/24 06:20:54;;;;;;;;;;;28.30;42.30;;;;;;5117344;28;944;-48
2022/05/24 06:23:21;;;;;;;;;;;28.30;42.40;;;;;;5117802;28;948;-49
2022/05/24 06:25:48;;;;;;;;;;;28.30;42.40;;;;;;5117551;28;1071;-48
2022/05/24 06:28:15;;;;;;;;;;;28.30;42.60;;;;;;5117677;28;1377;-49
2022/05/24 06:30:42;;;;;;;;;;;28.20;42.50;;;;;;5118091;28;972;-48
2022/05/24 06:33:09;;;;;;;;;;;28.20;42.70;;;;;;5117345;28;991;-48
2022/05/24 06:35:36;;;;;;;;;;;28.20;42.80;;;;;;5117593;28;1910;-48
2022/05/24 06:38:04;;;;;;;;;;;28.20;42.90;;;;;;5117040;28;1008;-49
2022/05/24 06:40:31;;;;;;;;;;;28.20;42.80;;;;;;5117577;28;880;-48
2022/05/24 06:42:58;;;;;;;;;;;28.20;42.80;;;;;;5117942;28;1044;-48
2022/05/24 06:45:24;;;;;;;;;;;28.20;42.80;;;;;;5106639;28;1003;-40
2022/05/24 06:47:52;;;;;;;;;;;28.30;42.90;;;;;;5116295;28;904;-47
2022/05/24 06:50:20;;;;;;;;;;;28.40;42.80;;;;;;5117406;28;956;-47
2022/05/24 06:52:47;;;;;;;;;;;28.30;42.90;;;;;;5116576;28;1018;-44
2022/05/24 06:55:15;;;;;;;;;;;28.30;42.90;;;;;;5116411;28;1979;-45
2022/05/24 06:57:42;;;;;;;;;;;28.30;42.90;;;;;;5117436;28;976;-45
2022/05/24 07:03:00;;;;;;;;;;;28.30;44.00;;;;;;5118353;28;912;-47
2022/05/24 07:05:26;;;;;;;;;;;28.30;42.80;;;;;;5119335;28;1019;-47
2022/05/24 07:07:53;;;;;;;;;;;28.20;42.80;;;;;;5118751;28;996;-45
2022/05/24 07:10:22;;;;;;;;;;;28.20;42.80;;;;;;5118864;28;1030;-45
2022/05/24 07:12:48;;;;;;;;;;;28.30;42.90;;;;;;5117203;28;949;-45
2022/05/24 07:15:15;;;;;;;;;;;28.30;42.90;;;;;;5118125;28;1973;-47
2022/05/24 07:17:42;;;;;;;;;;;28.30;44.00;;;;;;5116740;28;888;-45
2022/05/24 07:20:09;;;;;;;;;;;28.30;42.90;;;;;;5117676;28;956;-46
2022/05/24 07:22:37;;;;;;;;;;;28.30;42.70;;;;;;5116279;28;1000;-45
2022/05/24 07:25:06;;;;;;;;;;;28.30;42.70;;;;;;5117803;28;1031;-45
2022/05/24 07:27:34;;;;;;;;;;;28.20;42.70;;;;;;5117328;28;1035;-48
2022/05/24 07:30:01;;;;;;;;;;;28.30;42.80;;;;;;5118779;28;1012;-45
2022/05/24 07:32:28;;;;;;;;;;;28.20;42.70;;;;;;5108865;28;1490;-46
2022/05/24 07:34:56;;;;;;;;;;;28.20;42.70;;;;;;5097813;28;1901;-46
2022/05/24 07:37:23;;;;;;;;;;;28.20;42.70;;;;;;5097675;28;1197;-45
2022/05/24 07:45:47;;;;;;;;;;;28.20;42.70;;;;;;5097073;28;958;-47
2022/05/24 07:48:06;;;;;;;;;;;28.30;42.80;;;;;;5097991;28;883;-46
2022/05/24 07:50:33;;;;;;;;;;;28.30;42.70;;;;;;5097677;28;932;-47
2022/05/24 07:53:00;;;;;;;;;;;28.30;42.80;;;;;;5096571;28;929;-45
2022/05/24 07:55:27;;;;;;;;;;;28.30;42.60;;;;;;5096071;28;2000;-46
2022/05/24 07:57:55;;;;;;;;;;;28.30;42.60;;;;;;5095180;28;962;-46
2022/05/24 08:00:22;;;;;;;;;;;28.30;42.60;;;;;;5094725;28;1201;-45
2022/05/24 08:02:49;;;;;;;;;;;28.20;42.70;;;;;;5096569;28;1016;-47
2022/05/24 08:05:16;;;;;;;;;;;28.20;42.60;;;;;;5095480;28;1005;-49
2022/05/24 08:07:45;;;;;;;;;;;28.20;42.60;;;;;;5095584;28;1233;-47
2022/05/24 08:10:12;;;;;;;;;;;28.20;42.60;;;;;;5094941;28;1012;-47
2022/05/24 08:12:38;;;;;;;;;;;28.20;42.50;;;;;;5095846;28;897;-45
2022/05/24 08:15:07;;;;;;;;;;;28.30;42.60;;;;;;5094183;28;1976;-48
2022/05/24 08:17:34;;;;;;;;;;;28.30;42.50;;;;;;5095839;28;951;-47
2022/05/24 08:20:01;;;;;;;;;;;28.30;42.60;;;;;;5095094;28;1025;-46
2022/05/24 08:22:27;;;;;;;;;;;28.20;42.50;;;;;;5094866;28;1031;-45
2022/05/24 08:24:54;;;;;;;;;;;28.30;42.60;;;;;;5093633;28;747;-47
2022/05/24 08:27:21;;;;;;;;;;;28.30;42.50;;;;;;5094627;28;895;-45
2022/05/24 08:29:48;;;;;;;;;;;28.20;42.60;;;;;;5094395;28;972;-46
2022/05/24 08:32:16;;;;;;;;;;;28.20;42.50;;;;;;5094291;28;957;-45
2022/05/24 08:34:43;;;;;;;;;;;28.20;42.50;;;;;;5093518;28;1992;-47
2022/05/24 08:37:10;;;;;;;;;;;28.20;43.60;;;;;;5094893;28;1151;-46
2022/05/24 08:39:37;;;;;;;;;;;28.20;42.50;;;;;;5095267;28;1023;-45
2022/05/24 08:42:07;;;;;;;;;;;28.20;42.50;;;;;;5094032;28;949;-44
2022/05/24 08:50:10;;;;;;;;;;;28.20;42.50;;;;;;5093840;28;630;-47
2022/05/24 08:52:39;;;;;;;;;;;28.20;42.40;;;;;;5094006;28;1035;-45
2022/05/24 08:55:07;;;;;;;;;;;28.20;42.50;;;;;;5075860;28;1989;-49
2022/05/24 08:57:37;;;;;;;;;;;28.20;42.40;;;;;;5069117;28;1512;-45
2022/05/24 09:00:06;;;;;;;;;;;28.20;42.30;;;;;;5072280;28;1467;-46
2022/05/24 09:02:34;;;;;;;;;;;28.20;42.30;;;;;;5095275;28;1024;-45
2022/05/24 09:05:01;;;;;;;;;;;28.20;42.30;;;;;;5093813;28;988;-42
2022/05/24 09:07:33;;;;;;;;;;;28.20;42.20;;;;;;5093354;28;968;-47
2022/05/24 09:10:02;;;;;;;;;;;28.20;42.30;;;;;;5094506;28;884;-45
2022/05/24 09:12:37;;;;;;;;;;;28.20;42.30;;;;;;5094338;28;1055;-46
2022/05/24 09:15:09;;;;;;;;;;;28.20;43.40;;;;;;5093342;28;1902;-44
2022/05/24 09:17:43;;;;;;;;;;;28.20;42.30;;;;;;5093289;28;1153;-45
2022/05/24 09:20:11;;;;;;;;;;;28.20;42.50;;;;;;5093169;28;1793;-46
2022/05/24 09:22:38;;;;;;;;;;;28.20;42.40;;;;;;5092941;28;1007;-42
2022/05/24 09:25:06;;;;;;;;;;;28.20;42.50;;;;;;5093034;28;1043;-42
2022/05/24 09:27:49;;;;;;;;;;;28.20;42.40;;;;;;5092912;28;1008;-43
2022/05/24 09:30:22;;;;;;;;;;;28.20;42.40;;;;;;5093685;28;954;-45
2022/05/24 09:32:51;;;;;;;;;;;28.20;42.30;;;;;;5092923;28;967;-43
2022/05/24 09:35:21;;;;;;;;;;;28.20;42.30;;;;;;5092769;28;1914;-43
2022/05/24 09:38:03;;;;;;;;;;;28.20;42.20;;;;;;5093223;28;1004;-43
2022/05/24 09:40:31;;;;;;;;;;;28.20;42.10;;;;;;5094263;28;1004;-42
2022/05/24 09:43:15;;;;;;;;;;;28.20;42.10;;;;;;5093615;28;889;-42
2022/05/24 09:45:46;;;;;;;;;;;28.20;42.10;;;;;;5092633;28;1790;-44
2022/05/24 09:48:22;;;;;;;;;;;28.20;42.00;;;;;;5093157;28;984;-45
2022/05/24 09:50:50;;;;;;;;;;;28.20;41.90;;;;;;5092962;28;953;-43
2022/05/24 09:53:19;;;;;;;;;;;28.30;42.00;;;;;;5095082;28;880;-43
2022/05/24 09:55:47;;;;;;;;;;;28.30;41.90;;;;;;5092624;28;1906;-43
2022/05/24 09:58:26;;;;;;;;;;;28.30;41.90;;;;;;5091637;28;987;-43
2022/05/24 10:00:56;;;;;;;;;;;28.30;41.90;;;;;;5093050;28;3118;-46
2022/05/24 10:03:26;;;;;;;;;;;28.30;41.90;;;;;;5093041;28;940;-43
2022/05/24 10:06:03;;;;;;;;;;;28.30;41.80;;;;;;5092199;28;1039;-46
2022/05/24 10:08:34;;;;;;;;;;;28.30;41.90;;;;;;5092637;28;952;-50
2022/05/24 10:11:02;;;;;;;;;;;28.30;41.90;;;;;;5091576;28;923;-47
2022/05/24 10:13:34;;;;;;;;;;;28.30;41.90;;;;;;5091591;28;980;-47
2022/05/24 10:16:04;;;;;;;;;;;28.30;41.80;;;;;;5091897;28;1911;-48
2022/05/24 10:18:42;;;;;;;;;;;28.30;41.70;;;;;;5091329;28;952;-49
2022/05/24 10:21:13;;;;;;;;;;;28.30;41.70;;;;;;5091445;28;1031;-47
2022/05/24 10:23:44;;;;;;;;;;;28.40;41.80;;;;;;5091768;28;945;-47
2022/05/24 10:26:15;;;;;;;;;;;28.40;41.80;;;;;;5091087;28;988;-46
2022/05/24 10:28:45;;;;;;;;;;;28.30;41.60;;;;;;5092517;28;1861;-47
2022/05/24 10:31:14;;;;;;;;;;;28.30;41.70;;;;;;5092033;28;912;-43
2022/05/24 10:39:40;;;;;;;;;;;28.30;41.80;;;;;;5094393;28;693;-42
2022/05/24 10:42:12;;;;;;;;;;;28.40;41.70;;;;;;5084268;28;1911;-43
2022/05/24 10:44:40;;;;;;;;;;;28.30;41.90;;;;;;5094579;28;967;-43
2022/05/24 10:47:08;;;;;;;;;;;28.30;41.70;;;;;;5095109;28;973;-43
2022/05/24 10:49:40;;;;;;;;;;;28.40;41.90;;;;;;5092035;28;913;-45
2022/05/24 10:52:12;;;;;;;;;;;28.30;41.70;;;;;;5095372;28;934;-45
2022/05/24 10:54:43;;;;;;;;;;;28.30;41.60;;;;;;5094283;28;963;-46
2022/05/24 10:57:13;;;;;;;;;;;28.30;41.60;;;;;;5094029;28;1988;-45
2022/05/24 10:59:44;;;;;;;;;;;28.40;41.70;;;;;;5093458;28;1115;-48
2022/05/24 11:02:14;;;;;;;;;;;28.40;41.70;;;;;;5092010;28;929;-45
2022/05/24 11:04:46;;;;;;;;;;;28.40;41.60;;;;;;5092968;28;924;-47
2022/05/24 11:07:15;;;;;;;;;;;28.40;41.70;;;;;;5093654;28;1013;-45
2022/05/24 11:09:47;;;;;;;;;;;28.40;41.60;;;;;;5092747;28;1021;-45
2022/05/24 11:12:22;;;;;;;;;;;28.40;41.60;;;;;;5092785;28;1317;-45
2022/05/24 11:14:51;;;;;;;;;;;28.40;41.50;;;;;;5092779;28;996;-45
2022/05/24 11:17:18;;;;;;;;;;;28.40;41.60;;;;;;5092578;28;1902;-46
2022/05/24 11:19:49;;;;;;;;;;;28.30;41.40;;;;;;5093146;28;896;-43
2022/05/24 11:22:20;;;;;;;;;;;28.40;41.60;;;;;;5092532;28;1381;-43
2022/05/24 11:24:48;;;;;;;;;;;28.40;41.60;;;;;;5091816;28;988;-43
2022/05/24 11:27:18;;;;;;;;;;;28.40;41.50;;;;;;5093632;28;994;-45
2022/05/24 11:29:48;;;;;;;;;;;28.40;41.40;;;;;;5092556;28;1349;-43
2022/05/24 11:32:19;;;;;;;;;;;28.40;41.50;;;;;;5093802;28;959;-40
2022/05/24 11:34:56;;;;;;;;;;;28.40;41.50;;;;;;5093762;28;940;-42
2022/05/24 11:37:25;;;;;;;;;;;28.40;41.60;;;;;;5093470;28;1905;-44
2022/05/24 11:39:52;;;;;;;;;;;28.40;41.70;;;;;;5093455;28;1034;-44
2022/05/24 11:42:29;;;;;;;;;;;28.40;41.40;;;;;;5092786;28;977;-44
2022/05/24 11:44:57;;;;;;;;;;;28.40;41.60;;;;;;5093201;28;1011;-44
2022/05/24 11:47:43;;;;;;;;;;;28.40;41.50;;;;;;5095808;28;992;-45
2022/05/24 11:50:31;;;;;;;;;;;28.40;41.40;;;;;;5096036;28;1000;-45
2022/05/24 11:53:02;;;;;;;;;;;28.40;41.50;;;;;;5095492;28;2373;-42
2022/05/24 11:55:43;;;;;;;;;;;28.40;41.50;;;;;;5094319;28;1135;-43
2022/05/24 11:58:22;;;;;;;;;;;28.40;41.40;;;;;;5092091;28;996;-46
2022/05/24 12:00:55;;;;;;;;;;;28.40;41.50;;;;;;5093632;28;1324;-47
2022/05/24 12:09:09;;;;;;;;;;;28.40;41.50;;;;;;5114017;28;891;-45
2022/05/24 12:11:36;;;;;;;;;;;28.40;41.50;;;;;;5114553;28;948;-43
2022/05/24 12:14:15;;;;;;;;;;;28.40;42.60;;;;;;5114044;28;1030;-45
2022/05/24 12:16:45;;;;;;;;;;;28.40;41.50;;;;;;5112970;28;1901;-45
2022/05/24 12:19:32;;;;;;;;;;;28.40;41.50;;;;;;5113392;28;1108;-47
2022/05/24 12:22:02;;;;;;;;;;;28.40;41.50;;;;;;5113502;28;1112;-45
2022/05/24 12:24:48;;;;;;;;;;;28.40;41.50;;;;;;5113378;28;952;-44
2022/05/24 12:27:28;;;;;;;;;;;28.40;41.50;;;;;;5112469;28;1043;-46
2022/05/24 12:29:58;;;;;;;;;;;28.50;41.40;;;;;;5114159;28;1108;-46
2022/05/24 12:32:25;;;;;;;;;;;28.40;41.50;;;;;;5112845;28;977;-45
2022/05/24 12:34:52;;;;;;;;;;;28.40;41.50;;;;;;5115180;28;1099;-47
2022/05/24 12:37:25;;;;;;;;;;;28.40;41.40;;;;;;5114822;28;1886;-46
2022/05/24 12:40:09;;;;;;;;;;;28.40;41.50;;;;;;5114609;28;1162;-44
2022/05/24 12:42:41;;;;;;;;;;;28.40;41.50;;;;;;5113967;28;925;-45
2022/05/24 12:45:09;;;;;;;;;;;28.40;41.40;;;;;;5113281;28;857;-45
2022/05/24 12:47:35;;;;;;;;;;;28.40;41.50;;;;;;5113320;28;1064;-47
2022/05/24 12:50:02;;;;;;;;;;;28.40;41.50;;;;;;5113238;28;1008;-46
2022/05/24 12:52:31;;;;;;;;;;;28.40;41.40;;;;;;5112599;28;1012;-45
2022/05/24 12:54:59;;;;;;;;;;;28.40;41.50;;;;;;5113322;28;941;-44
2022/05/24 12:57:28;;;;;;;;;;;28.40;41.40;;;;;;5113407;28;1982;-44
2022/05/24 12:59:56;;;;;;;;;;;28.40;41.40;;;;;;5112315;28;1400;-46
2022/05/24 13:02:29;;;;;;;;;;;28.50;41.40;;;;;;5111969;28;912;-44
2022/05/24 13:04:58;;;;;;;;;;;28.40;41.30;;;;;;5112202;28;984;-45
2022/05/24 13:07:38;;;;;;;;;;;28.40;41.40;;;;;;5111764;28;937;-45
2022/05/24 13:10:10;;;;;;;;;;;28.50;41.40;;;;;;5112798;28;988;-47
2022/05/24 13:12:37;;;;;;;;;;;28.40;41.40;;;;;;5113429;28;898;-46
2022/05/24 13:15:06;;;;;;;;;;;28.40;41.40;;;;;;5112931;28;934;-45
2022/05/24 13:17:39;;;;;;;;;;;28.40;41.50;;;;;;5113268;28;1976;-46
2022/05/24 13:20:07;;;;;;;;;;;28.40;41.70;;;;;;5114579;28;930;-44
2022/05/24 13:22:44;;;;;;;;;;;28.30;41.50;;;;;;5113395;28;987;-46
2022/05/24 13:25:14;;;;;;;;;;;28.40;41.50;;;;;;5114810;28;940;-45
2022/05/24 13:27:51;;;;;;;;;;;28.40;41.50;;;;;;5114218;28;960;-44
2022/05/24 13:35:48;;;;;;;;;;;28.40;41.40;;;;;;5114239;28;719;-46
2022/05/24 13:38:21;;;;;;;;;;;28.40;41.30;;;;;;5113861;28;1914;-45
2022/05/24 13:40:52;;;;;;;;;;;28.40;41.40;;;;;;5113520;28;2730;-48
2022/05/24 13:43:31;;;;;;;;;;;28.40;41.50;;;;;;5114786;28;968;-44
2022/05/24 13:46:06;;;;;;;;;;;28.40;41.40;;;;;;5113087;28;1027;-45
2022/05/24 13:48:39;;;;;;;;;;;28.40;41.40;;;;;;5111687;28;948;-45
2022/05/24 13:51:07;;;;;;;;;;;28.40;41.50;;;;;;5113541;28;1001;-44
2022/05/24 13:53:36;;;;;;;;;;;28.40;41.60;;;;;;5112629;28;976;-44
2022/05/24 13:56:04;;;;;;;;;;;28.40;41.50;;;;;;5112295;28;1034;-46
2022/05/24 13:58:33;;;;;;;;;;;28.40;41.40;;;;;;5114028;28;1457;-46
2022/05/24 14:01:02;;;;;;;;;;;28.40;41.50;;;;;;5112246;28;1118;-44
2022/05/24 14:03:31;;;;;;;;;;;28.50;41.50;;;;;;5111841;28;1011;-45
2022/05/24 14:06:08;;;;;;;;;;;28.50;41.40;;;;;;5112156;28;1035;-48
2022/05/24 14:08:37;;;;;;;;;;;28.50;41.40;;;;;;5113602;28;1852;-46
2022/05/24 14:11:06;;;;;;;;;;;28.50;41.40;;;;;;5094211;28;945;-47
2022/05/24 14:13:33;;;;;;;;;;;28.50;41.40;;;;;;5091843;28;1001;-46
2022/05/24 14:16:02;;;;;;;;;;;28.40;41.40;;;;;;5091788;28;881;-46
2022/05/24 14:18:29;;;;;;;;;;;28.50;41.50;;;;;;5103187;28;1980;-44
2022/05/24 14:20:56;;;;;;;;;;;28.50;41.50;;;;;;5119331;28;944;-45
2022/05/24 14:23:23;;;;;;;;;;;28.50;41.60;;;;;;5118282;28;1027;-41
2022/05/24 14:25:51;;;;;;;;;;;28.50;41.60;;;;;;5117244;28;1013;-42
2022/05/24 14:28:19;;;;;;;;;;;28.50;41.60;;;;;;5117356;28;1035;-47
2022/05/24 14:30:46;;;;;;;;;;;28.50;41.70;;;;;;5116685;28;1000;-49
2022/05/24 14:33:15;;;;;;;;;;;28.50;41.70;;;;;;5117598;28;1031;-46
2022/05/24 14:35:42;;;;;;;;;;;28.50;41.70;;;;;;5118032;28;1733;-45
2022/05/24 14:38:09;;;;;;;;;;;28.50;41.60;;;;;;5117936;28;1893;-46
2022/05/24 14:40:38;;;;;;;;;;;28.50;41.50;;;;;;5117989;28;905;-46
2022/05/24 14:43:08;;;;;;;;;;;28.50;41.50;;;;;;5117171;28;937;-47
2022/05/24 14:45:35;;;;;;;;;;;28.50;41.50;;;;;;5116681;28;940;-45
2022/05/24 14:48:02;;;;;;;;;;;28.50;41.50;;;;;;5116618;28;996;-45
2022/05/24 14:50:29;;;;;;;;;;;28.50;41.40;;;;;;5116923;28;980;-44
2022/05/24 14:52:56;;;;;;;;;;;28.50;41.50;;;;;;5115640;28;1003;-42
2022/05/24 14:55:24;;;;;;;;;;;28.40;41.40;;;;;;5116728;28;909;-43
2022/05/24 14:57:50;;;;;;;;;;;28.50;41.50;;;;;;5115881;28;1905;-42
2022/05/24 15:00:20;;;;;;;;;;;28.40;41.40;;;;;;5114772;28;1137;-44
2022/05/24 15:02:47;;;;;;;;;;;28.40;41.40;;;;;;5112473;28;1667;-42
2022/05/24 15:05:14;;;;;;;;;;;28.50;41.40;;;;;;5116030;28;1258;-44
2022/05/24 15:15:54;;;;;;;;;;;28.60;41.20;;;;;;5079545;28;1122;-45
2022/05/24 15:18:21;;;;;;;;;;;28.60;41.10;;;;;;5116745;28;1902;-45
2022/05/24 15:20:48;;;;;;;;;;;28.50;41.20;;;;;;5114999;28;941;-42
2022/05/24 15:23:17;;;;;;;;;;;28.50;41.30;;;;;;5116634;28;1011;-41
2022/05/24 15:25:47;;;;;;;;;;;28.50;41.20;;;;;;5116321;28;938;-42
2022/05/24 15:28:14;;;;;;;;;;;28.50;41.50;;;;;;5116793;28;1031;-42
2022/05/24 15:30:41;;;;;;;;;;;28.50;41.40;;;;;;5116892;28;1043;-41
2022/05/24 15:33:10;;;;;;;;;;;28.50;41.50;;;;;;5115322;28;1023;-42
2022/05/24 15:35:39;;;;;;;;;;;28.50;41.40;;;;;;5116597;28;941;-42
2022/05/24 15:38:06;;;;;;;;;;;28.50;41.50;;;;;;5116106;28;1966;-42
2022/05/24 15:40:34;;;;;;;;;;;28.50;41.40;;;;;;5116300;28;956;-42